Terminal Aerodrome Forecast
Issued by NWS Melbourne, FL

Home | Current Version | Previous Version | Text Only | Print | Product List | Glossary On
Versions: 1 2 3 4 5 6 7 8 9 10 11 12 13 14 15 16 17 18 19 20 21 22 23 24 25 26
000
FTUS42 KMLB 060251 AAA
TAFMCO
TAF AMD
KMCO 060251Z 0603/0624 05006KT P6SM VCSH SCT030 OVC190
      TEMPO 0603/0606 SHRA BKN030
     FM060600 03005KT P6SM FEW025 BKN080
     FM061200 36013KT P6SM FEW025 SCT050 BKN250=

USA.gov is the U.S. government's official web portal to all federal, state and local government web resources and services.